Terminal Aerodrome Forecast
Issued by NWS Lubbock, TX

Home | Current Version | Previous Version | Text Only | Print | Product List | Glossary On
Versions: 1 2 3 4 5 6 7 8 9 10 11 12 13 14
346
FTUS44 KLUB 212324
TAFLBB
TAF
KLBB 212324Z 2200/2224 26021G31KT P6SM BKN080 BKN150
     FM220100 27015G25KT P6SM BKN050 BKN150
     FM220600 30026G36KT P6SM BKN040 OVC100
     FM221900 31015G25KT P6SM BKN050=

USA.gov is the U.S. government's official web portal to all federal, state and local government web resources and services.